Time;durP1;ratioP1;P1;durP2;ratioP2;P2;SDS_P1;SDS_P2;PMS_P1;PMS_P2;Temp;Humidity;BMP_temperature;BMP_pressure;BME280_temperature;BME280_humidity;BME280_pressure;Samples;Min_cycle;Max_cycle;Signal;HPM_P1;HPM_P2
2021/12/22 00:01:05;;;;;;;0.40;0.40;;;-1.50;90.90;;;;;;5074045;28;20631;-68
2021/12/22 00:03:30;;;;;;;0.40;0.40;;;-1.40;91.00;;;;;;5073474;28;20277;-69
2021/12/22 00:05:56;;;;;;;0.70;0.70;;;-1.40;90.90;;;;;;5074041;28;20252;-69
2021/12/22 00:08:23;;;;;;;0.50;0.50;;;-1.40;90.90;;;;;;5073926;28;20165;-68
2021/12/22 00:10:49;;;;;;;0.40;0.40;;;-1.50;90.80;;;;;;5074072;28;20168;-69
2021/12/22 00:13:15;;;;;;;0.30;0.30;;;-1.40;91.00;;;;;;5073746;28;20619;-68
2021/12/22 00:15:41;;;;;;;0.40;0.40;;;-1.40;91.40;;;;;;5073813;28;20423;-68
2021/12/22 00:18:07;;;;;;;0.50;0.50;;;-1.40;90.90;;;;;;5073641;28;20182;-68
2021/12/22 00:20:33;;;;;;;0.45;0.45;;;-1.50;90.80;;;;;;5073847;28;20688;-69
2021/12/22 00:22:59;;;;;;;0.30;0.30;;;-1.60;90.80;;;;;;5073670;28;20249;-68
2021/12/22 00:25:26;;;;;;;0.47;0.47;;;-1.60;91.00;;;;;;5073617;28;20193;-69
2021/12/22 00:27:54;;;;;;;0.70;0.70;;;-1.60;91.00;;;;;;5073554;28;20177;-69
2021/12/22 00:30:19;;;;;;;0.40;0.40;;;-1.50;90.90;;;;;;5073660;28;20162;-69
2021/12/22 00:32:51;;;;;;;0.40;0.40;;;-1.40;90.80;;;;;;5073582;28;20252;-68
2021/12/22 00:35:23;;;;;;;0.40;0.40;;;-1.40;90.70;;;;;;5073593;28;20901;-68
2021/12/22 00:37:49;;;;;;;0.50;0.50;;;-1.40;90.70;;;;;;5073594;28;20173;-68
2021/12/22 00:40:15;;;;;;;0.60;0.60;;;-1.40;90.50;;;;;;5073543;28;20526;-68
2021/12/22 00:42:41;;;;;;;0.50;0.50;;;-1.30;90.50;;;;;;5073564;28;20193;-68
2021/12/22 00:45:07;;;;;;;0.40;0.40;;;-1.30;90.40;;;;;;5073432;28;20250;-69
2021/12/22 00:47:33;;;;;;;0.40;0.40;;;-1.20;90.50;;;;;;5073495;28;20170;-68
2021/12/22 00:50:00;;;;;;;0.50;0.50;;;-1.20;90.40;;;;;;5073428;28;20224;-69
2021/12/22 00:52:26;;;;;;;0.40;0.40;;;-1.20;90.30;;;;;;5073462;28;20854;-69
2021/12/22 00:54:52;;;;;;;0.50;0.50;;;-1.20;90.20;;;;;;5073336;28;20538;-68
2021/12/22 00:57:18;;;;;;;0.40;0.40;;;-1.30;90.20;;;;;;5073377;28;20169;-68
2021/12/22 00:59:45;;;;;;;0.40;0.40;;;-1.30;90.20;;;;;;5072962;28;20964;-68
2021/12/22 01:02:13;;;;;;;0.43;0.43;;;-1.30;90.20;;;;;;5073306;28;20167;-69
2021/12/22 01:04:39;;;;;;;0.40;0.40;;;-1.30;90.20;;;;;;5073200;28;20584;-69
2021/12/22 01:07:06;;;;;;;1.27;1.20;;;-1.30;90.30;;;;;;5073405;28;20620;-69
2021/12/22 01:09:32;;;;;;;0.30;0.30;;;-1.30;90.20;;;;;;5073065;28;20252;-69
2021/12/22 01:11:58;;;;;;;0.40;0.40;;;-1.30;90.00;;;;;;5073364;28;20173;-69
2021/12/22 01:14:24;;;;;;;0.40;0.40;;;-1.40;90.00;;;;;;5073373;28;20180;-69
2021/12/22 01:16:53;;;;;;;0.40;0.40;;;-1.40;90.00;;;;;;5075552;28;20166;-69
2021/12/22 01:19:31;;;;;;;0.40;0.40;;;-1.50;90.10;;;;;;5077008;28;20776;-68
2021/12/22 01:22:05;;;;;;;0.30;0.30;;;-1.60;90.30;;;;;;5077262;28;20181;-69
2021/12/22 01:24:33;;;;;;;0.40;0.40;;;-1.50;90.40;;;;;;5077385;28;20238;-69
2021/12/22 01:27:06;;;;;;;0.40;0.40;;;-1.50;90.40;;;;;;5077087;28;20530;-69
2021/12/22 01:29:33;;;;;;;0.45;0.45;;;-1.60;90.30;;;;;;5077043;28;20219;-69
2021/12/22 01:32:00;;;;;;;1.63;1.52;;;-1.60;90.40;;;;;;5076992;28;20534;-68
2021/12/22 01:34:26;;;;;;;2.20;2.20;;;-1.50;90.60;;;;;;5076847;28;20165;-68
2021/12/22 01:36:52;;;;;;;0.40;0.40;;;-1.60;90.10;;;;;;5076798;28;20174;-68
2021/12/22 01:39:18;;;;;;;0.40;0.40;;;-1.60;89.90;;;;;;5076660;28;20169;-68
2021/12/22 01:41:44;;;;;;;0.43;0.43;;;-1.70;89.90;;;;;;5076925;28;20429;-68
2021/12/22 01:44:13;;;;;;;0.50;0.50;;;-1.60;90.10;;;;;;5076531;28;20209;-69
2021/12/22 01:49:11;;;;;;;0.30;0.30;;;-1.70;89.30;;;;;;5076324;28;20177;-69
2021/12/22 01:51:56;;;;;;;0.47;0.47;;;-1.70;89.30;;;;;;5076584;28;20203;-69
2021/12/22 01:54:37;;;;;;;0.43;0.43;;;-1.70;88.70;;;;;;5076578;28;20290;-68
2021/12/22 01:57:09;;;;;;;0.40;0.40;;;-1.70;88.70;;;;;;5076594;28;20195;-68
2021/12/22 01:59:35;;;;;;;0.40;0.40;;;-1.70;88.80;;;;;;5076205;28;20189;-68
2021/12/22 02:02:01;;;;;;;0.40;0.40;;;-1.70;89.60;;;;;;5076329;28;20185;-69
2021/12/22 02:04:26;;;;;;;0.43;0.43;;;-1.80;88.90;;;;;;5076230;28;20206;-69
2021/12/22 02:06:52;;;;;;;0.50;0.50;;;-1.70;89.10;;;;;;5076496;28;20172;-68
2021/12/22 02:11:57;;;;;;;0.40;0.40;;;-1.80;87.60;;;;;;5076331;28;20768;-68
2021/12/22 02:14:23;;;;;;;0.53;0.53;;;-1.90;87.90;;;;;;5076343;28;20207;-69
2021/12/22 02:16:48;;;;;;;1.03;1.03;;;-2.00;88.30;;;;;;5076116;28;20912;-69
2021/12/22 02:19:15;;;;;;;0.40;0.40;;;-2.00;88.80;;;;;;5075957;28;20645;-69
2021/12/22 02:21:47;;;;;;;0.55;0.55;;;-2.00;88.60;;;;;;5076112;28;20398;-69
2021/12/22 02:24:13;;;;;;;0.57;0.57;;;-2.00;87.70;;;;;;5075865;28;20248;-69
2021/12/22 02:26:47;;;;;;;0.57;0.57;;;-2.10;86.90;;;;;;5075535;28;20537;-68
2021/12/22 02:29:22;;;;;;;0.60;0.60;;;-2.10;86.90;;;;;;5075783;28;20200;-69
2021/12/22 02:32:03;;;;;;;0.50;0.50;;;-2.00;86.80;;;;;;5076052;28;20168;-68
2021/12/22 02:34:29;;;;;;;0.40;0.40;;;-2.10;86.70;;;;;;5075752;28;20169;-69
2021/12/22 02:36:59;;;;;;;0.70;0.70;;;-2.10;87.70;;;;;;5075893;28;20173;-69
2021/12/22 02:39:25;;;;;;;0.63;0.63;;;-2.10;88.10;;;;;;5075537;28;20429;-68
2021/12/22 02:41:51;;;;;;;0.47;0.47;;;-2.10;86.80;;;;;;5075675;28;20199;-69
2021/12/22 02:44:16;;;;;;;0.50;0.50;;;-2.10;86.80;;;;;;5075517;28;20569;-69
2021/12/22 02:46:42;;;;;;;0.30;0.30;;;-2.00;87.10;;;;;;5075775;28;20167;-69
2021/12/22 02:49:09;;;;;;;0.40;0.40;;;-2.00;86.70;;;;;;5075582;28;20173;-68
2021/12/22 02:51:35;;;;;;;0.50;0.50;;;-1.90;86.30;;;;;;5075608;28;20227;-68
2021/12/22 02:54:08;;;;;;;0.50;0.50;;;-1.90;86.20;;;;;;5075326;28;20564;-69
2021/12/22 02:59:16;;;;;;;0.55;0.55;;;-1.80;86.90;;;;;;5074968;28;20688;-69
2021/12/22 03:04:20;;;;;;;0.50;0.50;;;-1.80;87.30;;;;;;5075317;28;20658;-69
2021/12/22 03:07:22;;;;;;;0.50;0.50;;;-1.80;89.10;;;;;;5075230;28;20170;-69
2021/12/22 03:09:38;;;;;;;0.40;0.40;;;-1.80;89.90;;;;;;5075652;28;20170;-69
2021/12/22 03:12:06;;;;;;;0.70;0.70;;;-1.40;92.70;;;;;;5075138;28;20172;-69
2021/12/22 03:14:33;;;;;;;0.40;0.40;;;-1.70;90.30;;;;;;5074920;28;20252;-69
2021/12/22 03:16:59;;;;;;;0.40;0.40;;;-1.60;90.40;;;;;;5074968;28;20275;-69
2021/12/22 03:19:27;;;;;;;0.50;0.50;;;-1.60;90.30;;;;;;5075080;28;20173;-69
2021/12/22 03:21:59;;;;;;;1.30;1.00;;;-1.50;90.20;;;;;;5074938;28;20174;-69
2021/12/22 03:24:27;;;;;;;0.50;0.50;;;-1.60;87.90;;;;;;5074798;28;20189;-69
2021/12/22 03:26:52;;;;;;;0.50;0.50;;;-1.70;86.30;;;;;;5074910;28;20165;-69
2021/12/22 03:29:19;;;;;;;0.50;0.50;;;-1.70;86.30;;;;;;5074585;28;20158;-68
2021/12/22 03:31:46;;;;;;;0.40;0.40;;;-1.60;85.90;;;;;;5074672;28;20176;-69
2021/12/22 03:34:14;;;;;;;0.40;0.40;;;-1.60;86.00;;;;;;5074485;28;20193;-69
2021/12/22 03:36:42;;;;;;;0.50;0.50;;;-1.60;86.10;;;;;;5074498;28;20174;-69
2021/12/22 03:39:08;;;;;;;0.40;0.40;;;-1.50;87.20;;;;;;5073699;28;20174;-69
2021/12/22 03:41:37;;;;;;;0.50;0.50;;;-1.60;87.90;;;;;;5074574;28;20169;-69
2021/12/22 03:44:04;;;;;;;0.55;0.55;;;-1.60;88.50;;;;;;5074259;28;20209;-68
2021/12/22 03:46:29;;;;;;;0.40;0.40;;;-1.60;89.00;;;;;;5074384;28;20161;-68
2021/12/22 03:48:56;;;;;;;0.40;0.40;;;-1.60;89.00;;;;;;5074102;28;20543;-69
2021/12/22 03:51:21;;;;;;;0.40;0.40;;;-1.50;88.60;;;;;;5074382;28;20392;-69
2021/12/22 03:53:47;;;;;;;0.50;0.50;;;-1.60;87.40;;;;;;5074142;28;20193;-68
2021/12/22 03:56:13;;;;;;;0.40;0.40;;;-1.70;86.70;;;;;;5074391;28;20172;-68
2021/12/22 03:58:38;;;;;;;0.50;0.50;;;-1.60;86.50;;;;;;5073868;28;20176;-69
2021/12/22 04:01:04;;;;;;;0.60;0.60;;;-1.50;86.20;;;;;;5074126;28;20181;-69
2021/12/22 04:03:33;;;;;;;0.50;0.50;;;-1.60;86.90;;;;;;5073960;28;20264;-69
2021/12/22 04:05:59;;;;;;;0.40;0.40;;;-1.60;87.70;;;;;;5074098;28;20162;-68
2021/12/22 04:08:25;;;;;;;0.40;0.40;;;-1.60;88.10;;;;;;5073883;28;20623;-68
2021/12/22 04:10:51;;;;;;;0.50;0.50;;;-1.50;88.30;;;;;;5074327;28;20433;-68
2021/12/22 04:13:17;;;;;;;0.60;0.60;;;-1.50;88.40;;;;;;5073782;28;20462;-69
2021/12/22 04:15:44;;;;;;;0.57;0.57;;;-1.50;87.60;;;;;;5073888;28;20539;-68
2021/12/22 04:18:11;;;;;;;0.45;0.45;;;-1.50;87.80;;;;;;5073695;28;20169;-68
2021/12/22 04:20:37;;;;;;;0.40;0.40;;;-1.50;88.00;;;;;;5073921;28;20181;-69
2021/12/22 04:23:04;;;;;;;0.50;0.50;;;-1.50;87.90;;;;;;5072580;28;20201;-69
2021/12/22 04:25:30;;;;;;;0.30;0.30;;;-1.50;87.60;;;;;;5073826;28;20201;-68
2021/12/22 04:28:04;;;;;;;0.60;0.60;;;-1.50;87.80;;;;;;5073516;28;20248;-69
2021/12/22 04:30:32;;;;;;;0.40;0.40;;;-1.50;88.00;;;;;;5073865;28;20176;-69
2021/12/22 04:32:57;;;;;;;0.40;0.40;;;-1.40;88.00;;;;;;5073569;28;20610;-69
2021/12/22 04:35:23;;;;;;;0.40;0.40;;;-1.50;87.20;;;;;;5073644;28;20193;-69
2021/12/22 04:37:49;;;;;;;0.30;0.30;;;-1.40;87.50;;;;;;5073674;28;20177;-69
2021/12/22 04:40:15;;;;;;;0.40;0.40;;;-1.40;87.60;;;;;;5073375;28;20177;-69
2021/12/22 04:42:42;;;;;;;0.30;0.30;;;-1.40;87.40;;;;;;5073816;28;20251;-69
2021/12/22 04:45:10;;;;;;;0.50;0.50;;;-1.50;87.60;;;;;;5073356;28;20659;-68
2021/12/22 04:47:36;;;;;;;0.40;0.40;;;-1.40;87.90;;;;;;5073567;28;20201;-69
2021/12/22 04:50:03;;;;;;;0.60;0.60;;;-1.50;87.90;;;;;;5073337;28;20170;-68
2021/12/22 04:52:39;;;;;;;0.40;0.40;;;-1.40;88.10;;;;;;5073466;28;20215;-68
2021/12/22 04:55:05;;;;;;;0.52;0.52;;;-1.40;87.90;;;;;;5073485;28;20188;-68
2021/12/22 04:57:32;;;;;;;0.50;0.50;;;-1.30;87.20;;;;;;5073613;28;20170;-69
2021/12/22 04:59:58;;;;;;;0.40;0.40;;;-1.40;87.00;;;;;;5073058;28;20189;-69
2021/12/22 05:02:24;;;;;;;0.40;0.40;;;-1.40;87.80;;;;;;5073505;28;20189;-69
2021/12/22 05:04:50;;;;;;;0.40;0.40;;;-1.50;88.00;;;;;;5073219;28;20299;-68
2021/12/22 05:07:15;;;;;;;0.50;0.50;;;-1.70;88.30;;;;;;5073306;28;20169;-69
2021/12/22 05:09:41;;;;;;;1.00;1.00;;;-1.70;89.10;;;;;;5073158;28;20171;-69
2021/12/22 05:12:07;;;;;;;0.50;0.50;;;-1.70;89.70;;;;;;5073379;28;20682;-69
2021/12/22 05:14:33;;;;;;;0.38;0.38;;;-1.70;89.90;;;;;;5073182;28;20204;-68
2021/12/22 05:17:02;;;;;;;0.50;0.50;;;-1.70;89.50;;;;;;5073409;28;20213;-69
2021/12/22 05:19:27;;;;;;;0.40;0.40;;;-1.70;89.20;;;;;;5072978;28;20216;-69
2021/12/22 05:21:54;;;;;;;0.40;0.40;;;-1.60;89.30;;;;;;5073352;28;20173;-69
2021/12/22 05:24:20;;;;;;;0.50;0.50;;;-1.60;87.50;;;;;;5072949;28;20743;-69
2021/12/22 05:26:46;;;;;;;0.50;0.50;;;-1.60;85.70;;;;;;5073171;28;20213;-68
2021/12/22 05:29:14;;;;;;;0.50;0.50;;;-1.60;84.80;;;;;;5072942;28;20477;-68
2021/12/22 05:31:40;;;;;;;0.47;0.47;;;-1.60;85.00;;;;;;5073210;28;20426;-68
2021/12/22 05:34:06;;;;;;;0.40;0.40;;;-1.70;85.80;;;;;;5073142;28;20197;-69
2021/12/22 05:36:32;;;;;;;0.40;0.40;;;-1.60;86.60;;;;;;5072978;28;20408;-69
2021/12/22 05:38:58;;;;;;;0.50;0.50;;;-1.60;87.20;;;;;;5073199;28;20178;-69
2021/12/22 05:41:24;;;;;;;0.40;0.40;;;-1.60;87.50;;;;;;5073033;28;20392;-69
2021/12/22 05:43:50;;;;;;;0.40;0.40;;;-1.70;86.80;;;;;;5072759;28;20419;-68
2021/12/22 05:46:16;;;;;;;0.30;0.30;;;-1.70;86.30;;;;;;5073307;28;20407;-68
2021/12/22 05:48:44;;;;;;;0.50;0.50;;;-1.70;86.80;;;;;;5072988;28;20256;-68
2021/12/22 05:51:10;;;;;;;0.43;0.43;;;-1.70;87.30;;;;;;5072894;28;20215;-69
2021/12/22 05:53:36;;;;;;;0.40;0.40;;;-1.80;88.00;;;;;;5072864;28;20578;-69
2021/12/22 05:56:03;;;;;;;0.50;0.50;;;-1.70;88.80;;;;;;5073014;28;20160;-69
2021/12/22 05:58:28;;;;;;;0.50;0.50;;;-1.70;89.00;;;;;;5072722;28;20170;-69
2021/12/22 06:00:54;;;;;;;0.40;0.40;;;-1.70;89.00;;;;;;5072864;28;20554;-69
2021/12/22 06:03:20;;;;;;;0.40;0.40;;;-1.60;89.10;;;;;;5075479;28;20427;-69
2021/12/22 06:05:46;;;;;;;0.40;0.40;;;-1.60;88.60;;;;;;5076457;28;20745;-68
2021/12/22 06:08:11;;;;;;;0.40;0.40;;;-1.60;88.50;;;;;;5076153;28;20193;-68
2021/12/22 06:10:37;;;;;;;0.40;0.40;;;-1.60;88.70;;;;;;5076297;28;20400;-69
2021/12/22 06:13:04;;;;;;;0.40;0.40;;;-1.60;87.80;;;;;;5076131;28;20196;-69
2021/12/22 06:15:30;;;;;;;0.40;0.40;;;-1.60;87.90;;;;;;5076029;28;20260;-69
2021/12/22 06:17:58;;;;;;;0.60;0.60;;;-1.60;88.50;;;;;;5075864;28;20181;-68
2021/12/22 06:20:24;;;;;;;0.55;0.55;;;-1.50;89.00;;;;;;5076243;28;20455;-68
2021/12/22 06:22:50;;;;;;;0.45;0.45;;;-1.50;87.20;;;;;;5075975;28;20617;-69
2021/12/22 06:25:16;;;;;;;0.40;0.40;;;-1.50;84.90;;;;;;5075852;28;20197;-69
2021/12/22 06:27:42;;;;;;;0.50;0.50;;;-1.50;84.50;;;;;;5076167;28;20508;-69
2021/12/22 06:30:08;;;;;;;0.50;0.50;;;-1.60;85.80;;;;;;5075861;28;20400;-69
2021/12/22 06:32:34;;;;;;;0.40;0.40;;;-1.60;86.60;;;;;;5075740;28;20188;-69
2021/12/22 06:35:00;;;;;;;0.40;0.40;;;-1.60;86.50;;;;;;5075823;28;20568;-69
2021/12/22 06:37:25;;;;;;;0.43;0.43;;;-1.60;87.70;;;;;;5075826;28;20173;-69
2021/12/22 06:39:51;;;;;;;0.50;0.50;;;-1.60;87.90;;;;;;5075623;28;20215;-69
2021/12/22 06:42:17;;;;;;;0.50;0.50;;;-1.60;88.20;;;;;;5075810;28;20189;-68
2021/12/22 06:44:42;;;;;;;0.50;0.50;;;-1.70;88.70;;;;;;5075551;28;20225;-69
2021/12/22 06:47:10;;;;;;;0.40;0.40;;;-1.60;89.00;;;;;;5075979;28;20639;-69
2021/12/22 06:49:37;;;;;;;0.50;0.50;;;-1.60;88.90;;;;;;5075577;28;20500;-68
2021/12/22 06:52:03;;;;;;;0.50;0.50;;;-1.60;88.90;;;;;;5075512;28;20650;-69
2021/12/22 06:54:28;;;;;;;0.50;0.50;;;-1.60;88.30;;;;;;5075371;28;20184;-68
2021/12/22 06:56:54;;;;;;;0.40;0.40;;;-1.60;86.40;;;;;;5075561;28;20200;-69
2021/12/22 06:59:20;;;;;;;0.43;0.43;;;-1.70;84.60;;;;;;5074997;28;20193;-69
2021/12/22 07:01:46;;;;;;;0.53;0.53;;;-1.80;84.40;;;;;;5075615;28;20551;-69
2021/12/22 07:04:11;;;;;;;0.60;0.60;;;-1.80;85.30;;;;;;5075123;28;20201;-68
2021/12/22 07:06:37;;;;;;;0.40;0.40;;;-1.80;86.40;;;;;;5075392;28;20413;-69
2021/12/22 07:09:05;;;;;;;0.40;0.40;;;-1.80;86.30;;;;;;5074974;28;20177;-69
2021/12/22 07:11:33;;;;;;;0.50;0.50;;;-1.80;86.10;;;;;;5075697;28;20168;-69
2021/12/22 07:14:00;;;;;;;0.50;0.50;;;-1.90;86.20;;;;;;5073822;28;20189;-69
2021/12/22 07:16:26;;;;;;;0.60;0.60;;;-1.80;86.80;;;;;;5074963;28;20576;-69
2021/12/22 07:18:52;;;;;;;0.63;0.63;;;-1.90;85.80;;;;;;5074985;28;20188;-68
2021/12/22 07:21:17;;;;;;;0.50;0.50;;;-1.90;84.30;;;;;;5074973;28;20212;-69
2021/12/22 07:23:43;;;;;;;0.57;0.57;;;-1.90;84.20;;;;;;5074691;28;20193;-69
2021/12/22 07:26:13;;;;;;;0.50;0.50;;;-2.00;83.90;;;;;;5074949;28;20627;-69
2021/12/22 07:28:43;;;;;;;2.47;2.38;;;-2.20;83.40;;;;;;5074695;28;20162;-69
2021/12/22 07:31:08;;;;;;;0.50;0.50;;;-2.30;83.50;;;;;;5074866;28;20175;-69
2021/12/22 07:33:34;;;;;;;0.57;0.57;;;-2.30;84.20;;;;;;5074653;28;20185;-69
2021/12/22 07:36:02;;;;;;;1.93;1.83;;;-2.40;84.70;;;;;;5074776;28;20180;-69
2021/12/22 07:38:38;;;;;;;0.55;0.55;;;-2.30;85.00;;;;;;5074467;28;20623;-69
2021/12/22 07:41:05;;;;;;;0.50;0.50;;;-2.30;84.90;;;;;;5074669;28;20171;-69
2021/12/22 07:43:31;;;;;;;0.60;0.60;;;-2.20;84.40;;;;;;5074368;28;20189;-69
2021/12/22 07:45:57;;;;;;;0.40;0.40;;;-2.20;84.20;;;;;;5074557;28;20276;-69
2021/12/22 07:48:23;;;;;;;0.50;0.50;;;-2.10;84.10;;;;;;5074220;28;20490;-68
2021/12/22 07:50:49;;;;;;;0.40;0.40;;;-2.10;84.00;;;;;;5074431;28;20666;-69
2021/12/22 07:53:14;;;;;;;0.50;0.50;;;-2.10;84.20;;;;;;5074198;28;20216;-68
2021/12/22 07:55:40;;;;;;;0.40;0.40;;;-2.00;84.40;;;;;;5074165;28;20170;-69
2021/12/22 07:58:07;;;;;;;0.50;0.50;;;-1.90;84.00;;;;;;5074152;28;20173;-69
2021/12/22 08:00:33;;;;;;;0.40;0.40;;;-1.80;84.00;;;;;;5074112;28;20185;-68
2021/12/22 08:02:59;;;;;;;0.40;0.40;;;-1.70;83.30;;;;;;5074200;28;20247;-69
2021/12/22 08:05:24;;;;;;;0.47;0.47;;;-1.70;82.60;;;;;;5074493;28;20205;-69
2021/12/22 08:07:50;;;;;;;0.50;0.50;;;-1.70;82.10;;;;;;5074064;28;20230;-69
2021/12/22 08:10:16;;;;;;;0.73;0.73;;;-1.80;82.00;;;;;;5073740;28;20177;-68
2021/12/22 08:12:42;;;;;;;0.60;0.60;;;-1.80;83.40;;;;;;5073827;28;20609;-69
2021/12/22 08:15:08;;;;;;;0.50;0.50;;;-1.70;84.20;;;;;;5074120;28;20182;-68
2021/12/22 08:17:34;;;;;;;0.50;0.50;;;-1.70;82.80;;;;;;5073888;28;20673;-68
2021/12/22 08:20:01;;;;;;;0.60;0.60;;;-1.60;82.50;;;;;;5074107;28;20420;-68
2021/12/22 08:22:27;;;;;;;0.55;0.55;;;-1.50;82.10;;;;;;5073847;28;20466;-68
2021/12/22 08:24:52;;;;;;;0.40;0.40;;;-1.40;81.90;;;;;;5073321;28;20203;-69
2021/12/22 08:27:19;;;;;;;0.60;0.60;;;-1.40;81.40;;;;;;5072461;28;20419;-69
2021/12/22 08:29:45;;;;;;;1.30;1.30;;;-1.20;81.50;;;;;;5073495;28;20291;-68
2021/12/22 08:32:11;;;;;;;0.30;0.30;;;-0.90;80.40;;;;;;5073560;28;20658;-69
2021/12/22 08:34:40;;;;;;;0.40;0.40;;;-0.50;78.80;;;;;;5073702;28;20510;-69
2021/12/22 08:39:51;;;;;;;0.30;0.30;;;0.40;74.20;;;;;;5073494;28;20669;-70
2021/12/22 08:42:17;;;;;;;0.30;0.30;;;1.10;72.80;;;;;;5073436;28;20208;-69
2021/12/22 08:44:42;;;;;;;0.40;0.40;;;2.30;69.90;;;;;;5073527;28;20197;-69
2021/12/22 08:47:08;;;;;;;0.40;0.40;;;3.40;64.90;;;;;;5073458;28;20167;-69
2021/12/22 08:49:34;;;;;;;0.32;0.32;;;3.80;60.80;;;;;;5073245;28;20245;-69
2021/12/22 08:52:00;;;;;;;0.40;0.40;;;4.30;57.00;;;;;;5073490;28;20180;-69
2021/12/22 08:54:26;;;;;;;0.32;0.32;;;4.50;55.00;;;;;;5073616;28;20770;-69
2021/12/22 08:56:54;;;;;;;0.30;0.30;;;4.90;54.20;;;;;;5073441;28;20171;-69
2021/12/22 08:59:19;;;;;;;0.32;0.32;;;4.70;54.20;;;;;;5073228;28;20433;-69
2021/12/22 09:01:45;;;;;;;0.40;0.40;;;5.10;53.80;;;;;;5073477;28;20646;-69
2021/12/22 09:04:11;;;;;;;0.33;0.33;;;5.70;52.40;;;;;;5073187;28;20227;-69
2021/12/22 09:06:37;;;;;;;0.43;0.43;;;6.20;51.00;;;;;;5073222;28;20162;-70
2021/12/22 09:09:04;;;;;;;0.40;0.40;;;7.00;49.30;;;;;;5073250;28;20244;-69
2021/12/22 09:11:30;;;;;;;0.40;0.40;;;7.50;47.80;;;;;;5073173;28;20400;-69
2021/12/22 09:13:56;;;;;;;1.43;1.43;;;7.70;47.00;;;;;;5073150;28;20200;-69
2021/12/22 09:16:21;;;;;;;0.40;0.40;;;7.60;45.90;;;;;;5073305;28;20492;-69
2021/12/22 09:18:47;;;;;;;0.57;0.57;;;8.00;46.20;;;;;;5072929;28;20662;-70
2021/12/22 09:21:13;;;;;;;0.90;0.90;;;8.90;44.40;;;;;;5073111;28;20169;-70
2021/12/22 09:23:39;;;;;;;0.40;0.40;;;9.60;42.50;;;;;;5073035;28;20198;-70
2021/12/22 09:26:05;;;;;;;0.40;0.40;;;9.70;41.40;;;;;;5071800;28;20464;-69
2021/12/22 09:28:32;;;;;;;0.40;0.40;;;9.80;40.80;;;;;;5073061;28;20553;-69
2021/12/22 09:30:58;;;;;;;0.40;0.40;;;10.20;39.30;;;;;;5072993;28;20208;-70
2021/12/22 09:33:25;;;;;;;0.60;0.60;;;11.00;38.60;;;;;;5073161;28;20203;-69
2021/12/22 09:35:52;;;;;;;0.40;0.40;;;11.30;37.00;;;;;;5073036;28;20162;-69
2021/12/22 09:38:18;;;;;;;0.40;0.40;;;11.30;36.60;;;;;;5075758;28;20230;-70
2021/12/22 09:40:45;;;;;;;2.50;2.40;;;11.60;36.30;;;;;;5076842;28;20168;-70
2021/12/22 09:43:11;;;;;;;0.57;0.57;;;11.70;35.90;;;;;;5077018;28;20449;-70
2021/12/22 09:45:43;;;;;;;0.40;0.40;;;11.30;36.10;;;;;;5076612;28;20197;-69
2021/12/22 09:50:52;;;;;;;0.30;0.30;;;10.70;36.40;;;;;;5076620;28;20170;-69
2021/12/22 09:53:21;;;;;;;0.85;0.85;;;10.30;36.70;;;;;;5076642;28;20423;-69
2021/12/22 09:55:47;;;;;;;0.40;0.40;;;10.50;37.80;;;;;;5076811;28;20199;-70
2021/12/22 09:58:14;;;;;;;0.40;0.40;;;11.10;36.90;;;;;;5076546;28;20177;-70
2021/12/22 10:00:43;;;;;;;0.30;0.30;;;11.50;36.10;;;;;;5076291;28;20193;-67
2021/12/22 10:03:10;;;;;;;0.50;0.50;;;12.00;35.80;;;;;;5076291;28;20616;-68
2021/12/22 10:05:37;;;;;;;0.95;0.95;;;12.30;34.80;;;;;;5076293;28;20212;-67
2021/12/22 10:08:16;;;;;;;0.30;0.30;;;12.60;34.90;;;;;;5076204;28;20174;-67
2021/12/22 10:10:46;;;;;;;0.55;0.55;;;12.60;34.60;;;;;;5076405;28;20184;-67
2021/12/22 10:13:21;;;;;;;1.70;1.60;;;12.60;34.70;;;;;;5076204;28;20192;-68
2021/12/22 10:15:47;;;;;;;0.32;0.32;;;12.60;34.80;;;;;;5076383;28;20177;-67
2021/12/22 10:18:22;;;;;;;0.30;0.30;;;12.80;34.90;;;;;;5075983;28;20201;-67
2021/12/22 10:20:50;;;;;;;0.30;0.30;;;13.10;34.30;;;;;;5076326;28;20561;-67
2021/12/22 10:23:25;;;;;;;0.38;0.38;;;12.80;33.90;;;;;;5076002;28;20217;-68
2021/12/22 10:25:59;;;;;;;0.40;0.40;;;12.60;35.00;;;;;;5076318;28;20189;-67
2021/12/22 10:28:28;;;;;;;0.40;0.40;;;12.50;34.90;;;;;;5076141;28;20207;-67
2021/12/22 10:31:01;;;;;;;0.30;0.30;;;11.70;36.70;;;;;;5076115;28;20173;-67
2021/12/22 10:33:30;;;;;;;0.40;0.40;;;11.70;36.80;;;;;;5076118;28;20186;-67
2021/12/22 10:35:59;;;;;;;0.40;0.40;;;12.20;36.50;;;;;;5075795;28;20185;-67
2021/12/22 10:38:28;;;;;;;0.40;0.40;;;12.40;35.90;;;;;;5075619;28;20693;-68
2021/12/22 10:40:57;;;;;;;0.82;0.82;;;12.40;35.40;;;;;;5075761;28;20169;-68
2021/12/22 10:43:26;;;;;;;0.30;0.30;;;12.10;35.50;;;;;;5075730;28;20349;-67
2021/12/22 10:45:56;;;;;;;1.02;1.02;;;11.80;35.70;;;;;;5075625;28;20208;-67
2021/12/22 10:51:14;;;;;;;0.30;0.30;;;10.50;38.40;;;;;;5075724;28;20227;-67
2021/12/22 10:53:49;;;;;;;0.38;0.38;;;9.90;40.40;;;;;;5075393;28;20219;-67
2021/12/22 10:56:35;;;;;;;0.40;0.40;;;8.90;42.10;;;;;;5075538;28;20200;-66
2021/12/22 10:59:11;;;;;;;0.40;0.40;;;8.20;43.60;;;;;;5075110;28;20570;-67
2021/12/22 11:01:54;;;;;;;0.40;0.40;;;7.40;45.20;;;;;;5075351;28;20177;-67
2021/12/22 11:04:26;;;;;;;0.40;0.40;;;6.60;46.90;;;;;;5075073;28;20691;-69
2021/12/22 11:06:54;;;;;;;0.40;0.40;;;5.90;47.90;;;;;;5075419;28;20170;-69
2021/12/22 11:09:22;;;;;;;0.40;0.40;;;5.60;49.50;;;;;;5074937;28;20246;-69
2021/12/22 11:11:51;;;;;;;0.38;0.38;;;5.20;51.10;;;;;;5075040;28;20185;-70
2021/12/22 11:14:24;;;;;;;0.50;0.50;;;5.00;51.80;;;;;;5074946;28;20239;-69
2021/12/22 11:17:04;;;;;;;0.30;0.30;;;4.50;52.70;;;;;;5075296;28;20178;-69
2021/12/22 11:19:33;;;;;;;0.40;0.40;;;4.40;53.90;;;;;;5074736;28;20201;-69
2021/12/22 11:22:08;;;;;;;0.40;0.40;;;4.50;54.10;;;;;;5074925;28;20642;-69
2021/12/22 11:24:37;;;;;;;0.40;0.40;;;4.40;53.90;;;;;;5074964;28;20196;-69
2021/12/22 11:27:04;;;;;;;0.40;0.40;;;4.50;54.40;;;;;;5074869;28;20168;-69
2021/12/22 11:29:35;;;;;;;0.40;0.40;;;4.40;54.70;;;;;;5074653;28;20173;-69
2021/12/22 11:32:06;;;;;;;0.40;0.40;;;4.30;55.30;;;;;;5074862;28;20174;-69
2021/12/22 11:34:36;;;;;;;0.50;0.50;;;4.30;55.80;;;;;;5074828;28;20185;-69
2021/12/22 11:37:04;;;;;;;0.40;0.40;;;4.30;55.60;;;;;;5074958;28;20300;-69
2021/12/22 11:39:32;;;;;;;0.60;0.60;;;4.30;55.90;;;;;;5074338;28;20278;-69
2021/12/22 11:41:59;;;;;;;0.40;0.40;;;4.00;56.40;;;;;;5074531;28;20185;-69
2021/12/22 11:44:27;;;;;;;0.40;0.40;;;3.60;57.40;;;;;;5074294;28;20195;-69
2021/12/22 11:46:56;;;;;;;0.30;0.30;;;3.40;58.30;;;;;;5074235;28;20541;-70
2021/12/22 11:49:23;;;;;;;0.30;0.30;;;3.10;59.00;;;;;;5074118;28;20259;-69
2021/12/22 11:51:48;;;;;;;1.50;1.48;;;2.90;59.90;;;;;;5074453;28;20171;-69
2021/12/22 11:54:14;;;;;;;0.30;0.30;;;2.70;61.10;;;;;;5074394;28;20191;-69
2021/12/22 11:56:46;;;;;;;0.40;0.40;;;2.60;62.20;;;;;;5074301;28;20163;-69
2021/12/22 11:59:32;;;;;;;0.40;0.40;;;2.50;62.70;;;;;;5073488;28;20421;-70
2021/12/22 12:02:33;;;;;;;0.30;0.30;;;2.30;63.90;;;;;;5074191;28;20182;-69
2021/12/22 12:05:16;;;;;;;0.40;0.40;;;2.20;65.40;;;;;;5073913;28;20545;-69
2021/12/22 12:07:57;;;;;;;0.68;0.68;;;2.10;66.80;;;;;;5074080;28;20502;-69
2021/12/22 12:10:40;;;;;;;0.70;0.70;;;2.00;67.50;;;;;;5073947;28;20177;-69
2021/12/22 12:13:44;;;;;;;0.40;0.40;;;1.90;68.80;;;;;;5074014;28;20193;-69
2021/12/22 12:22:19;;;;;;;0.30;0.30;;;1.70;70.50;;;;;;5073885;28;20181;-69
2021/12/22 12:24:54;;;;;;;0.40;0.40;;;1.60;71.60;;;;;;5073660;28;20202;-69
2021/12/22 12:27:41;;;;;;;0.30;0.30;;;1.70;72.60;;;;;;5074093;28;20170;-70
2021/12/22 12:30:10;;;;;;;0.30;0.30;;;1.60;73.20;;;;;;5073688;28;20177;-69
2021/12/22 12:32:50;;;;;;;0.30;0.30;;;1.50;74.20;;;;;;5073698;28;20327;-69
2021/12/22 12:35:20;;;;;;;0.30;0.30;;;1.40;75.50;;;;;;5073555;28;20174;-69
2021/12/22 12:38:07;;;;;;;0.40;0.40;;;1.40;76.40;;;;;;5072260;28;20640;-69
2021/12/22 12:40:57;;;;;;;0.30;0.30;;;1.50;77.50;;;;;;5073565;28;20200;-69
2021/12/22 12:43:48;;;;;;;0.30;0.30;;;1.50;78.00;;;;;;5073341;28;20239;-69
2021/12/22 12:49:14;;;;;;;0.30;0.30;;;1.50;79.60;;;;;;5077103;28;20178;-69
2021/12/22 12:51:55;;;;;;;0.40;0.40;;;1.50;79.80;;;;;;5073261;28;20651;-69
2021/12/22 12:54:25;;;;;;;0.30;0.30;;;1.50;80.20;;;;;;5073461;28;20668;-69
2021/12/22 12:56:54;;;;;;;0.40;0.40;;;1.50;80.90;;;;;;5073558;28;20193;-69
2021/12/22 12:59:37;;;;;;;0.30;0.30;;;1.50;81.70;;;;;;5073091;28;20614;-69
2021/12/22 13:02:03;;;;;;;0.40;0.40;;;1.50;81.80;;;;;;5073693;28;20542;-69
2021/12/22 13:04:37;;;;;;;0.32;0.32;;;1.60;82.00;;;;;;5073196;28;20202;-68
2021/12/22 13:07:05;;;;;;;0.30;0.30;;;1.60;81.80;;;;;;5073549;28;20189;-69
2021/12/22 13:09:31;;;;;;;0.30;0.30;;;1.70;82.20;;;;;;5073284;28;20174;-69
2021/12/22 13:12:10;;;;;;;0.40;0.40;;;1.60;83.00;;;;;;5074308;28;20177;-69
2021/12/22 13:17:26;;;;;;;0.30;0.30;;;1.70;84.00;;;;;;5077804;28;20188;-69
2021/12/22 13:19:55;;;;;;;0.40;0.40;;;1.70;83.80;;;;;;5077036;28;20186;-69
2021/12/22 13:22:27;;;;;;;0.30;0.30;;;1.70;83.90;;;;;;5077291;28;20192;-69
2021/12/22 13:25:19;;;;;;;0.40;0.40;;;1.70;84.20;;;;;;5076978;28;20609;-69
2021/12/22 13:27:47;;;;;;;0.30;0.30;;;1.70;84.40;;;;;;5076975;28;20720;-69